createdAt,value
2022-08-17T00:00:10.992Z,99929.31
2022-08-17T00:02:56.291Z,99926.25
2022-08-17T00:05:22.552Z,99927.22
2022-08-17T00:07:48.882Z,99923.47
2022-08-17T00:10:15.120Z,99924.88
2022-08-17T00:12:44.538Z,99934.19
2022-08-17T00:15:10.897Z,99935.31
2022-08-17T00:17:37.073Z,99930.59
2022-08-17T00:20:03.292Z,99931.53
2022-08-17T00:22:34.759Z,99935.88
2022-08-17T00:25:02.185Z,99931.69
2022-08-17T00:27:28.397Z,99928.34
2022-08-17T00:29:54.629Z,99929.03
2022-08-17T00:33:14.004Z,99926.97
2022-08-17T00:35:07.027Z,99926.28
2022-08-17T00:37:33.190Z,99923.91
2022-08-17T00:39:59.510Z,99917.22
2022-08-17T00:42:30.784Z,99920.41
2022-08-17T00:44:57.363Z,99916.38
2022-08-17T00:47:23.609Z,99911.50
2022-08-17T00:49:49.772Z,99917.03
2022-08-17T00:52:15.997Z,99916.03
2022-08-17T00:54:42.533Z,99920.66
2022-08-17T00:57:08.850Z,99917.72
2022-08-17T00:59:35.040Z,99921.75
2022-08-17T01:02:01.232Z,99919.38
2022-08-17T01:04:27.431Z,99921.16
2022-08-17T01:06:53.629Z,99917.28
2022-08-17T01:09:19.834Z,99909.78
2022-08-17T01:11:46.016Z,99918.22
2022-08-17T01:14:12.184Z,99912.00
2022-08-17T01:16:38.367Z,99914.22
2022-08-17T01:19:04.537Z,99910.72
2022-08-17T01:21:30.896Z,99922.28
2022-08-17T01:23:57.095Z,99920.53
2022-08-17T01:26:23.301Z,99913.69
2022-08-17T01:28:53.876Z,99908.41
2022-08-17T01:31:21.383Z,99910.31
2022-08-17T01:33:47.572Z,99911.41
2022-08-17T01:36:13.777Z,99909.22
2022-08-17T01:38:39.965Z,99906.91
2022-08-17T01:41:06.167Z,99916.75
2022-08-17T01:43:32.348Z,99918.19
2022-08-17T01:46:03.738Z,99925.13
2022-08-17T01:48:30.284Z,99927.66
2022-08-17T01:50:58.766Z,99920.25
2022-08-17T01:53:24.952Z,99920.56
2022-08-17T01:55:51.131Z,99924.34
2022-08-17T01:58:20.231Z,99922.38
2022-08-17T02:01:00.762Z,99921.09
2022-08-17T02:03:36.644Z,99922.44
2022-08-17T02:06:02.825Z,99918.72
2022-08-17T02:08:37.257Z,99924.94
2022-08-17T02:11:05.570Z,99918.16
2022-08-17T02:13:37.617Z,99918.16
2022-08-17T02:16:03.792Z,99923.25
2022-08-17T02:18:40.339Z,99926.00
2022-08-17T02:21:06.515Z,99928.06
2022-08-17T02:23:32.697Z,99931.06
2022-08-17T02:25:58.871Z,99933.03
2022-08-17T02:28:25.050Z,99932.19
2022-08-17T02:31:01.383Z,99933.03
2022-08-17T02:33:43.089Z,99926.97
2022-08-17T02:36:09.897Z,99930.25
2022-08-17T02:38:36.091Z,99928.25
2022-08-17T02:41:02.278Z,99927.41
2022-08-17T02:43:28.444Z,99927.41
2022-08-17T02:45:54.624Z,99921.19
2022-08-17T02:48:30.773Z,99921.81
2022-08-17T02:50:58.080Z,99927.94
2022-08-17T02:53:24.259Z,99932.75
2022-08-17T02:55:51.990Z,99938.47
2022-08-17T02:58:18.873Z,99935.41
2022-08-17T03:01:01.080Z,99936.41
2022-08-17T03:03:27.243Z,99937.56
2022-08-17T03:05:53.634Z,99934.06
2022-08-17T03:08:19.838Z,99937.09
2022-08-17T03:10:46.072Z,99942.38
2022-08-17T03:13:12.288Z,99934.06
2022-08-17T03:15:38.590Z,99933.22
2022-08-17T03:18:14.375Z,99933.94
2022-08-17T03:20:45.587Z,99929.03
2022-08-17T03:23:11.779Z,99927.09
2022-08-17T03:25:37.947Z,99923.00
2022-08-17T03:28:04.865Z,99925.28
2022-08-17T03:30:31.091Z,99917.28
2022-08-17T03:32:57.301Z,99912.56
2022-08-17T03:35:23.548Z,99918.28
2022-08-17T03:38:00.890Z,99919.00
2022-08-17T03:40:55.305Z,99919.84
2022-08-17T03:43:13.582Z,99919.25
2022-08-17T03:45:39.809Z,99921.44
2022-08-17T03:48:06.019Z,99925.19
2022-08-17T03:50:32.208Z,99930.81
2022-08-17T03:52:58.489Z,99920.38
2022-08-17T03:55:24.780Z,99934.88
2022-08-17T03:58:02.615Z,99945.50
2022-08-17T04:00:28.819Z,99950.34
2022-08-17T04:02:54.969Z,99967.25
2022-08-17T04:05:21.146Z,99981.09
2022-08-17T04:07:47.335Z,99991.03
2022-08-17T04:10:13.505Z,99986.28
2022-08-17T04:12:39.700Z,99983.34
2022-08-17T04:15:05.872Z,100012.47
2022-08-17T04:17:32.069Z,99985.09
2022-08-17T04:19:58.431Z,99984.16
2022-08-17T04:22:32.945Z,99987.44
2022-08-17T04:25:00.331Z,100000.50
2022-08-17T04:27:26.541Z,100002.16
2022-08-17T04:29:55.301Z,100001.72
2022-08-17T04:32:59.183Z,99987.84
2022-08-17T04:35:08.098Z,99986.88
2022-08-17T04:37:34.280Z,99993.00
2022-08-17T04:40:03.971Z,99993.81
2022-08-17T04:42:30.580Z,100004.22
2022-08-17T04:44:56.787Z,100011.06
2022-08-17T04:47:22.984Z,100019.56
2022-08-17T04:49:49.158Z,100004.03
2022-08-17T04:52:32.338Z,100030.63
2022-08-17T04:55:01.843Z,100029.56
2022-08-17T04:57:28.084Z,100032.38
2022-08-17T04:59:54.243Z,100019.59
2022-08-17T05:02:20.478Z,100021.69
2022-08-17T05:04:46.661Z,100021.97
2022-08-17T05:07:12.869Z,100030.34
2022-08-17T05:09:39.114Z,100056.25
2022-08-17T05:12:05.271Z,100057.69
2022-08-17T05:14:37.725Z,100046.88
2022-08-17T05:17:07.227Z,100027.94
2022-08-17T05:19:37.424Z,100030.16
2022-08-17T05:24:53.636Z,100028.94
2022-08-17T05:27:21.723Z,100023.34
2022-08-17T05:29:49.714Z,100031.28
2022-08-17T05:32:39.084Z,100036.47
2022-08-17T05:35:02.098Z,100036.63
2022-08-17T05:40:19.018Z,100038.69
2022-08-17T05:42:45.192Z,100037.97
2022-08-17T05:45:11.382Z,100039.94
2022-08-17T05:47:38.666Z,100035.56
2022-08-17T05:50:09.841Z,100051.41
2022-08-17T05:52:36.228Z,100050.38
2022-08-17T05:55:02.625Z,100032.81
2022-08-17T05:57:28.856Z,100039.31
2022-08-17T05:59:55.580Z,100023.31
2022-08-17T06:02:21.945Z,100024.84
2022-08-17T06:04:48.233Z,100018.94
2022-08-17T06:07:14.533Z,100025.47
2022-08-17T06:09:40.747Z,100020.75
2022-08-17T06:12:06.989Z,100014.97
2022-08-17T06:14:40.637Z,100023.47
2022-08-17T06:17:06.882Z,100028.50
2022-08-17T06:19:33.090Z,100015.56
2022-08-17T06:21:59.321Z,100028.81
2022-08-17T06:24:26.345Z,100027.84
2022-08-17T06:26:52.568Z,100035.53
2022-08-17T06:29:19.097Z,100041.94
2022-08-17T06:31:45.398Z,100045.25
2022-08-17T06:34:11.744Z,100053.34
2022-08-17T06:36:37.980Z,100053.34
2022-08-17T06:39:04.165Z,100032.53
2022-08-17T06:41:30.480Z,100024.25
2022-08-17T06:43:56.731Z,100038.22
2022-08-17T06:46:22.925Z,100037.53
2022-08-17T06:48:49.181Z,100030.97
2022-08-17T06:51:15.416Z,100029.81
2022-08-17T06:53:41.635Z,100025.34
2022-08-17T06:56:07.860Z,100027.53
2022-08-17T06:58:34.141Z,100035.38
2022-08-17T07:01:00.342Z,100052.50
2022-08-17T07:03:26.563Z,100052.34
2022-08-17T07:05:52.729Z,100062.97
2022-08-17T07:08:18.925Z,100088.06
2022-08-17T07:10:45.126Z,100064.34
2022-08-17T07:13:11.308Z,100057.28
2022-08-17T07:15:37.521Z,100056.59
2022-08-17T07:18:03.829Z,100046.81
2022-08-17T07:20:30.065Z,100063.63
2022-08-17T07:23:00.007Z,100046.56
2022-08-17T07:25:26.817Z,100064.97
2022-08-17T07:27:53.068Z,100078.94
2022-08-17T07:30:19.242Z,100084.19
2022-08-17T07:32:45.457Z,100068.41
2022-08-17T07:35:11.777Z,100068.25
2022-08-17T07:37:38.017Z,100051.09
2022-08-17T07:40:16.309Z,100050.25
2022-08-17T07:42:46.681Z,100054.56
2022-08-17T07:45:12.992Z,100083.69
2022-08-17T07:47:39.198Z,100079.84
2022-08-17T07:50:05.425Z,100078.00
2022-08-17T07:52:50.843Z,100067.78
2022-08-17T07:55:17.787Z,100058.50
2022-08-17T07:57:44.068Z,100042.56
2022-08-17T08:00:13.485Z,100060.69
2022-08-17T08:02:42.668Z,100071.56
2022-08-17T08:05:09.030Z,100078.22
2022-08-17T08:07:36.353Z,100080.88
2022-08-17T08:10:02.534Z,100071.47
2022-08-17T08:12:33.703Z,100082.09
2022-08-17T08:15:00.155Z,100075.63
2022-08-17T08:17:26.367Z,100074.94
2022-08-17T08:19:52.837Z,100075.09
2022-08-17T08:22:19.025Z,100086.88
2022-08-17T08:24:45.274Z,100078.75
2022-08-17T08:27:11.549Z,100084.59
2022-08-17T08:29:37.724Z,100079.66
2022-08-17T08:32:03.919Z,100087.31
2022-08-17T08:35:00.735Z,100092.16
2022-08-17T08:37:22.640Z,100081.09
2022-08-17T08:39:51.346Z,100064.16
2022-08-17T08:42:17.592Z,100046.47
2022-08-17T08:45:00.064Z,100044.28
2022-08-17T08:47:29.955Z,100099.00
2022-08-17T08:50:04.839Z,100105.84
2022-08-17T08:52:31.702Z,100095.22
2022-08-17T08:54:57.907Z,100085.94
2022-08-17T08:57:28.033Z,100095.75
2022-08-17T08:59:59.190Z,100063.97
2022-08-17T09:02:25.372Z,100078.53
2022-08-17T09:05:13.318Z,100068.22
2022-08-17T09:07:37.773Z,100055.00
2022-08-17T09:10:03.984Z,100069.94
2022-08-17T09:12:30.204Z,100059.38
2022-08-17T09:14:56.386Z,100027.81
2022-08-17T09:17:22.597Z,100019.72
2022-08-17T09:19:48.833Z,100022.78
2022-08-17T09:22:15.014Z,100016.25
2022-08-17T09:24:41.208Z,100013.47
2022-08-17T09:27:07.438Z,100008.03
2022-08-17T09:29:33.707Z,100003.06
2022-08-17T09:31:59.911Z,100039.66
2022-08-17T09:34:31.979Z,100096.78
2022-08-17T09:36:59.513Z,100105.31
2022-08-17T09:39:25.746Z,100102.03
2022-08-17T09:41:51.936Z,100110.25
2022-08-17T09:44:23.103Z,100109.50
2022-08-17T09:46:50.029Z,100096.50
2022-08-17T09:49:16.231Z,100083.13
2022-08-17T09:51:42.426Z,100088.66
2022-08-17T09:54:37.083Z,100081.41
2022-08-17T09:57:18.141Z,100113.75
2022-08-17T09:59:40.937Z,100111.28
2022-08-17T10:02:08.087Z,100112.66
2022-08-17T10:04:39.514Z,100112.47
2022-08-17T10:07:05.694Z,100119.75
2022-08-17T10:09:31.874Z,100127.81
2022-08-17T10:11:58.761Z,100127.22
2022-08-17T10:14:36.394Z,100124.81
2022-08-17T10:17:04.356Z,100134.75
2022-08-17T10:19:30.569Z,100139.53
2022-08-17T10:22:00.958Z,100149.47
2022-08-17T10:24:27.793Z,100176.25
2022-08-17T10:26:56.801Z,100175.66
2022-08-17T10:29:23.644Z,100182.56
2022-08-17T10:31:53.078Z,100160.78
2022-08-17T10:34:19.311Z,100175.34
2022-08-17T10:36:45.513Z,100186.66
2022-08-17T10:39:11.685Z,100187.56
2022-08-17T10:41:40.307Z,100179.75
2022-08-17T10:44:39.095Z,100185.97
2022-08-17T10:46:52.962Z,100186.38
2022-08-17T10:49:19.148Z,100179.25
2022-08-17T10:51:45.335Z,100186.50
2022-08-17T10:54:12.784Z,100190.38
2022-08-17T10:56:38.975Z,100188.78
2022-08-17T10:59:05.179Z,100184.53
2022-08-17T11:01:31.370Z,100193.41
2022-08-17T11:03:57.546Z,100195.00
2022-08-17T11:06:23.764Z,100197.22
2022-08-17T11:08:49.988Z,100212.81
2022-08-17T11:11:16.333Z,100221.97
2022-08-17T11:13:42.611Z,100212.06
2022-08-17T11:16:08.817Z,100214.66
2022-08-17T11:18:34.982Z,100218.75
2022-08-17T11:21:01.144Z,100205.28
2022-08-17T11:23:27.370Z,100195.81
2022-08-17T11:25:53.621Z,100192.25
2022-08-17T11:28:19.826Z,100191.03
2022-08-17T11:30:46.042Z,100212.34
2022-08-17T11:33:12.314Z,100222.41
2022-08-17T11:35:38.503Z,100210.03
2022-08-17T11:38:04.739Z,100208.53
2022-08-17T11:40:31.439Z,100214.00
2022-08-17T11:42:57.615Z,100202.69
2022-08-17T11:45:32.566Z,100207.78
2022-08-17T11:48:26.080Z,100203.16
2022-08-17T11:50:45.303Z,100204.78
2022-08-17T11:53:11.530Z,100203.91
2022-08-17T11:55:42.998Z,100200.78
2022-08-17T11:58:11.186Z,100197.56
2022-08-17T12:00:37.419Z,100207.91
2022-08-17T12:03:03.772Z,100205.41
2022-08-17T12:05:30.095Z,100200.78
2022-08-17T12:07:56.285Z,100213.59
2022-08-17T12:10:22.452Z,100199.22
2022-08-17T12:12:48.673Z,100197.78
2022-08-17T12:17:59.047Z,100188.06
2022-08-17T12:20:25.437Z,100179.91
2022-08-17T12:22:51.640Z,100168.16
2022-08-17T12:25:17.832Z,100170.16
2022-08-17T12:28:04.910Z,100157.88
2022-08-17T12:30:30.282Z,100161.03
2022-08-17T12:32:56.459Z,100140.84
2022-08-17T12:35:22.714Z,100143.00
2022-08-17T12:37:49.173Z,100169.88
2022-08-17T12:40:15.593Z,100154.19
2022-08-17T12:42:42.152Z,100146.34
2022-08-17T12:45:08.397Z,100131.94
2022-08-17T12:47:34.666Z,100131.63
2022-08-17T12:50:00.980Z,100129.91
2022-08-17T12:52:27.283Z,100131.59
2022-08-17T12:54:53.559Z,100117.41
2022-08-17T12:57:19.750Z,100116.03
2022-08-17T12:59:46.028Z,100125.66
2022-08-17T13:02:12.391Z,100111.72
2022-08-17T13:04:38.626Z,100106.72
2022-08-17T13:07:04.834Z,100094.75
2022-08-17T13:09:40.069Z,100106.97
2022-08-17T13:12:07.772Z,100094.69
2022-08-17T13:14:34.269Z,100100.84
2022-08-17T13:17:00.557Z,100092.59
2022-08-17T13:19:39.811Z,100107.22
2022-08-17T13:22:08.559Z,100101.66
2022-08-17T13:24:38.167Z,100104.13
2022-08-17T13:27:07.806Z,100105.66
2022-08-17T13:29:34.624Z,100109.44
2022-08-17T13:32:04.965Z,100103.84
2022-08-17T13:34:34.154Z,100109.59
2022-08-17T13:37:04.966Z,100092.56
2022-08-17T13:39:34.405Z,100091.03
2022-08-17T13:42:00.584Z,100086.16
2022-08-17T13:44:26.821Z,100089.75
2022-08-17T13:46:56.976Z,100073.91
2022-08-17T13:49:23.650Z,100074.63
2022-08-17T13:51:49.915Z,100077.50
2022-08-17T13:54:16.185Z,100079.97
2022-08-17T13:56:42.455Z,100073.91
2022-08-17T13:59:08.721Z,100068.81
2022-08-17T14:01:34.969Z,100058.19
2022-08-17T14:04:01.218Z,100049.34
2022-08-17T14:06:51.765Z,100048.00
2022-08-17T14:09:13.752Z,100035.06
2022-08-17T14:11:40.233Z,100030.72
2022-08-17T14:14:06.777Z,100026.91
2022-08-17T14:16:33.001Z,100028.75
2022-08-17T14:18:59.232Z,100019.22
2022-08-17T14:21:25.440Z,100014.94
2022-08-17T14:23:54.771Z,100014.97
2022-08-17T14:26:21.270Z,100009.84
2022-08-17T14:28:56.317Z,100006.94
2022-08-17T14:31:22.990Z,100011.69
2022-08-17T14:33:49.201Z,100006.09
2022-08-17T14:36:15.422Z,100012.13
2022-08-17T14:38:41.622Z,100005.91
2022-08-17T14:41:07.903Z,100007.97
2022-08-17T14:43:34.441Z,100011.06
2022-08-17T14:46:00.645Z,100005.09
2022-08-17T14:48:28.238Z,100006.31
2022-08-17T14:50:54.890Z,100009.59
2022-08-17T14:53:21.181Z,100008.97
2022-08-17T14:55:49.710Z,100007.50
2022-08-17T14:58:15.991Z,100008.31
2022-08-17T15:00:42.208Z,100005.84
2022-08-17T15:03:08.506Z,100005.41
2022-08-17T15:05:34.721Z,100002.50
2022-08-17T15:08:00.968Z,99994.56
2022-08-17T15:10:27.231Z,99993.22
2022-08-17T15:12:53.569Z,99989.31
2022-08-17T15:15:19.783Z,99992.28
2022-08-17T15:17:46.259Z,99993.25
2022-08-17T15:20:14.825Z,99988.72
2022-08-17T15:22:41.496Z,99991.75
2022-08-17T15:25:07.729Z,99990.03
2022-08-17T15:27:33.984Z,99996.09
2022-08-17T15:30:00.221Z,99986.13
2022-08-17T15:32:26.470Z,99991.13
2022-08-17T15:34:52.765Z,99994.28
2022-08-17T15:37:19.077Z,99993.09
2022-08-17T15:39:46.571Z,99995.97
2022-08-17T15:42:12.923Z,99988.50
2022-08-17T15:44:40.238Z,99984.13
2022-08-17T15:47:06.524Z,99993.59
2022-08-17T15:49:34.747Z,99992.75
2022-08-17T15:52:01.045Z,99983.59
2022-08-17T15:54:33.522Z,99987.06
2022-08-17T15:57:00.996Z,99990.38
2022-08-17T15:59:27.341Z,99987.66
2022-08-17T16:03:15.378Z,99992.44
2022-08-17T16:04:40.419Z,99997.78
2022-08-17T16:07:10.298Z,99991.50
2022-08-17T16:09:36.717Z,99989.16
2022-08-17T16:12:02.971Z,99996.84
2022-08-17T16:14:33.638Z,99985.28
2022-08-17T16:17:01.518Z,99990.16
2022-08-17T16:19:27.737Z,99987.63
2022-08-17T16:21:53.967Z,99992.09
2022-08-17T16:24:20.186Z,99984.50
2022-08-17T16:26:46.414Z,99984.50
2022-08-17T16:29:12.640Z,99979.50
2022-08-17T16:31:38.940Z,99981.50
2022-08-17T16:34:16.731Z,99979.41
2022-08-17T16:36:51.728Z,99983.63
2022-08-17T16:39:22.042Z,99990.78
2022-08-17T16:41:48.246Z,99982.69
2022-08-17T16:44:15.352Z,99983.94
2022-08-17T16:46:45.868Z,99984.69
2022-08-17T16:49:12.536Z,99982.50
2022-08-17T16:51:55.990Z,99979.63
2022-08-17T16:54:22.221Z,99989.31
2022-08-17T16:56:48.423Z,99988.72
2022-08-17T16:59:39.424Z,99974.59
2022-08-17T17:02:00.892Z,99971.63
2022-08-17T17:04:27.166Z,99968.03
2022-08-17T17:06:53.403Z,99962.38
2022-08-17T17:09:19.654Z,99961.38
2022-08-17T17:11:45.903Z,99956.69
2022-08-17T17:14:12.131Z,99955.09
2022-08-17T17:16:39.999Z,99959.47
2022-08-17T17:19:10.413Z,99964.09
2022-08-17T17:21:36.641Z,99966.63
2022-08-17T17:24:02.893Z,99955.66
2022-08-17T17:26:29.254Z,99957.22
2022-08-17T17:28:55.464Z,99958.53
2022-08-17T17:31:21.982Z,99961.97
2022-08-17T17:33:48.218Z,99948.69
2022-08-17T17:36:14.430Z,99947.53
2022-08-17T17:38:40.714Z,99935.72
2022-08-17T17:41:26.479Z,99934.47
2022-08-17T17:43:52.881Z,99944.59
2022-08-17T17:46:28.554Z,99943.69
2022-08-17T17:48:55.452Z,99939.22
2022-08-17T17:51:55.722Z,99945.44
2022-08-17T17:54:11.274Z,99933.19
2022-08-17T17:56:44.060Z,99933.69
2022-08-17T17:59:12.645Z,99934.25
2022-08-17T18:01:39.370Z,99937.31
2022-08-17T18:04:17.060Z,99939.19
2022-08-17T18:06:47.298Z,99926.47
2022-08-17T18:09:15.481Z,99922.84
2022-08-17T18:11:51.380Z,99917.59
2022-08-17T18:14:18.005Z,99918.84
2022-08-17T18:16:44.187Z,99925.44
2022-08-17T18:19:10.369Z,99927.63
2022-08-17T18:21:36.599Z,99934.72
2022-08-17T18:24:02.809Z,99937.56
2022-08-17T18:26:29.007Z,99944.97
2022-08-17T18:28:58.334Z,99946.53
2022-08-17T18:31:24.513Z,99945.75
2022-08-17T18:33:50.790Z,99948.47
2022-08-17T18:36:16.987Z,99957.25
2022-08-17T18:38:43.214Z,99960.09
2022-08-17T18:41:09.367Z,99965.91
2022-08-17T18:43:43.757Z,99971.25
2022-08-17T18:46:28.109Z,99975.63
2022-08-17T18:48:55.542Z,99976.66
2022-08-17T18:51:40.267Z,99972.66
2022-08-17T18:54:08.803Z,99971.34
2022-08-17T18:56:35.018Z,99976.19
2022-08-17T18:59:01.267Z,99976.69
2022-08-17T19:01:41.735Z,99983.38
2022-08-17T19:04:13.785Z,99979.72
2022-08-17T19:06:40.038Z,99966.75
2022-08-17T19:09:06.315Z,99981.22
2022-08-17T19:19:30.763Z,99999.50
2022-08-17T19:21:58.309Z,100007.31
2022-08-17T19:24:34.526Z,100007.00
2022-08-17T19:27:01.304Z,100013.63
2022-08-17T19:32:13.829Z,100012.63
2022-08-17T19:34:40.174Z,100007.81
2022-08-17T19:37:06.412Z,100004.97
2022-08-17T19:39:38.572Z,100004.81
2022-08-17T19:42:04.957Z,100009.47
2022-08-17T19:44:31.323Z,100006.97
2022-08-17T19:47:00.985Z,100011.81
2022-08-17T19:49:33.497Z,100008.63
2022-08-17T19:52:09.160Z,100008.28
2022-08-17T19:54:36.609Z,100012.38
2022-08-17T19:57:02.852Z,100007.66
2022-08-17T19:59:29.175Z,100012.47
2022-08-17T20:02:02.096Z,100014.25
2022-08-17T20:04:31.825Z,100009.09
2022-08-17T20:06:59.032Z,100017.22
2022-08-17T20:09:25.285Z,100010.34
2022-08-17T20:11:59.712Z,100011.66
2022-08-17T20:14:25.919Z,100009.34
2022-08-17T20:16:52.139Z,100012.88
2022-08-17T20:19:18.668Z,100016.19
2022-08-17T20:21:49.138Z,100016.16
2022-08-17T20:24:15.395Z,100012.06
2022-08-17T20:26:42.718Z,100004.72
2022-08-17T20:29:37.817Z,100008.16
2022-08-17T20:32:09.049Z,100015.38
2022-08-17T20:34:37.480Z,100017.13
2022-08-17T20:37:04.373Z,100011.75
2022-08-17T20:39:34.765Z,100021.38
2022-08-17T20:42:31.380Z,100019.56
2022-08-17T20:44:52.170Z,100023.22
2022-08-17T20:47:18.358Z,100027.75
2022-08-17T20:49:44.559Z,100026.69
2022-08-17T20:52:10.736Z,100016.59
2022-08-17T20:54:36.892Z,100021.47
2022-08-17T20:57:06.185Z,100029.03
2022-08-17T20:59:40.409Z,100030.00
2022-08-17T21:02:19.106Z,100024.00
2022-08-17T21:04:45.574Z,100022.19
2022-08-17T21:07:11.799Z,100033.63
2022-08-17T21:09:38.053Z,100029.31
2022-08-17T21:12:05.652Z,100036.81
2022-08-17T21:14:31.993Z,100030.84
2022-08-17T21:16:58.203Z,100043.44
2022-08-17T21:19:24.387Z,100048.03
2022-08-17T21:21:50.546Z,100047.34
2022-08-17T21:24:16.737Z,100051.56
2022-08-17T21:26:50.444Z,100051.72
2022-08-17T21:29:31.608Z,100054.97
2022-08-17T21:31:59.187Z,100058.22
2022-08-17T21:34:25.412Z,100057.69
2022-08-17T21:36:51.603Z,100055.13
2022-08-17T21:39:18.221Z,100051.94
2022-08-17T21:41:49.424Z,100047.09
2022-08-17T21:44:15.611Z,100048.34
2022-08-17T21:46:41.784Z,100060.91
2022-08-17T21:49:13.954Z,100066.91
2022-08-17T21:51:40.593Z,100079.16
2022-08-17T21:54:06.769Z,100079.31
2022-08-17T21:56:34.606Z,100074.59
2022-08-17T21:59:00.805Z,100077.38
2022-08-17T22:01:27.073Z,100076.97
2022-08-17T22:03:53.347Z,100074.88
2022-08-17T22:06:19.543Z,100073.34
2022-08-17T22:08:45.701Z,100080.09
2022-08-17T22:11:11.887Z,100088.28
2022-08-17T22:13:38.095Z,100086.81
2022-08-17T22:16:04.275Z,100088.97
2022-08-17T22:18:41.970Z,100093.41
2022-08-17T22:21:08.144Z,100087.56
2022-08-17T22:23:34.348Z,100092.56
2022-08-17T22:26:00.522Z,100094.13
2022-08-17T22:28:26.715Z,100100.81
2022-08-17T22:30:52.877Z,100097.47
2022-08-17T22:33:19.055Z,100105.56
2022-08-17T22:35:45.246Z,100124.38
2022-08-17T22:38:11.503Z,100120.47
2022-08-17T22:40:37.677Z,100132.03
2022-08-17T22:43:03.825Z,100148.34
2022-08-17T22:45:30.233Z,100152.09
2022-08-17T22:47:56.408Z,100168.66
2022-08-17T22:50:22.614Z,100174.09
2022-08-17T22:52:48.762Z,100171.88
2022-08-17T22:55:14.929Z,100177.53
2022-08-17T22:57:41.142Z,100186.25
2022-08-17T23:00:07.318Z,100187.97
2022-08-17T23:02:33.607Z,100195.72
2022-08-17T23:04:59.879Z,100195.16
2022-08-17T23:07:26.070Z,100197.88
2022-08-17T23:09:52.259Z,100201.31
2022-08-17T23:12:18.423Z,100197.59
2022-08-17T23:14:44.605Z,100201.41
2022-08-17T23:17:10.938Z,100213.38
2022-08-17T23:19:37.133Z,100212.25
2022-08-17T23:22:03.305Z,100212.78
2022-08-17T23:24:29.493Z,100220.53
2022-08-17T23:26:55.712Z,100220.94
2022-08-17T23:29:21.914Z,100221.16
2022-08-17T23:31:48.148Z,100215.91
2022-08-17T23:34:14.343Z,100213.16
2022-08-17T23:36:40.499Z,100210.56
2022-08-17T23:39:06.675Z,100210.72
2022-08-17T23:41:32.837Z,100205.84
2022-08-17T23:43:59.011Z,100213.53
2022-08-17T23:46:25.227Z,100214.03
2022-08-17T23:48:51.514Z,100215.22
2022-08-17T23:51:17.735Z,100210.81
2022-08-17T23:53:43.937Z,100216.28
2022-08-17T23:56:11.325Z,100209.38
2022-08-17T23:58:37.805Z,100210.59
